createdAt,value
2023-05-22T00:00:16.648Z,3.17
2023-05-22T00:02:44.696Z,2.80
2023-05-22T00:05:13.301Z,2.93
2023-05-22T00:07:43.316Z,2.63
2023-05-22T00:10:11.390Z,2.83
2023-05-22T00:12:39.148Z,2.70
2023-05-22T00:15:07.703Z,2.60
2023-05-22T00:17:35.468Z,2.83
2023-05-22T00:20:06.869Z,2.97
2023-05-22T00:22:37.478Z,2.60
2023-05-22T00:25:05.757Z,3.13
2023-05-22T00:27:34.080Z,2.60
2023-05-22T00:30:01.911Z,3.20
2023-05-22T00:32:29.901Z,2.90
2023-05-22T00:34:57.832Z,2.67
2023-05-22T00:37:25.980Z,2.60
2023-05-22T00:39:53.739Z,2.30
2023-05-22T00:42:21.507Z,2.47
2023-05-22T00:44:49.907Z,2.40
2023-05-22T00:47:17.644Z,2.27
2023-05-22T00:49:45.393Z,2.83
2023-05-22T00:52:13.159Z,2.60
2023-05-22T00:54:41.257Z,2.40
2023-05-22T00:57:08.959Z,2.30
2023-05-22T00:59:36.835Z,2.50
2023-05-22T01:02:04.676Z,2.90
2023-05-22T01:04:32.832Z,2.80
2023-05-22T01:07:02.917Z,3.20
2023-05-22T01:09:30.731Z,2.50
2023-05-22T01:12:16.624Z,2.60
2023-05-22T01:14:49.808Z,2.57
2023-05-22T01:17:48.701Z,2.80
2023-05-22T01:21:04.298Z,2.40
2023-05-22T01:23:54.126Z,2.23
2023-05-22T01:26:32.233Z,2.50
2023-05-22T01:29:14.329Z,2.73
2023-05-22T01:31:43.336Z,2.37
2023-05-22T01:34:11.859Z,2.13
2023-05-22T01:36:40.499Z,2.77
2023-05-22T01:39:08.274Z,2.47
2023-05-22T01:41:36.070Z,3.10
2023-05-22T01:44:04.527Z,2.47
2023-05-22T01:46:32.374Z,3.40
2023-05-22T01:49:00.536Z,2.77
2023-05-22T01:51:37.094Z,3.10
2023-05-22T01:54:14.385Z,3.00
2023-05-22T01:56:54.987Z,3.07
2023-05-22T01:59:33.085Z,3.57
2023-05-22T02:02:06.378Z,3.17
2023-05-22T02:04:37.281Z,2.73
2023-05-22T02:07:05.272Z,3.80
2023-05-22T02:09:33.020Z,3.63
2023-05-22T02:12:01.039Z,3.40
2023-05-22T02:14:30.406Z,3.30
2023-05-22T02:16:58.350Z,2.97
2023-05-22T02:19:28.431Z,2.67
2023-05-22T02:21:57.078Z,2.60
2023-05-22T02:24:24.773Z,2.43
2023-05-22T02:26:53.620Z,2.33
2023-05-22T02:29:21.338Z,2.83
2023-05-22T02:31:49.525Z,2.80
2023-05-22T02:34:17.274Z,3.53
2023-05-22T02:36:45.072Z,3.20
2023-05-22T02:39:13.630Z,3.33
2023-05-22T02:41:41.732Z,3.20
2023-05-22T02:44:09.638Z,3.13
2023-05-22T02:46:37.555Z,3.23
2023-05-22T02:49:05.452Z,2.90
2023-05-22T02:51:33.292Z,2.83
2023-05-22T02:54:01.053Z,2.80
2023-05-22T02:56:29.604Z,2.97
2023-05-22T02:58:57.422Z,2.87
2023-05-22T03:01:26.591Z,2.97
2023-05-22T03:03:55.514Z,2.60
2023-05-22T03:06:25.529Z,3.00
2023-05-22T03:08:54.360Z,2.93
2023-05-22T03:11:22.157Z,2.93
2023-05-22T03:13:49.866Z,2.67
2023-05-22T03:16:17.753Z,3.13
2023-05-22T03:18:47.532Z,3.53
2023-05-22T03:21:15.407Z,4.37
2023-05-22T03:23:44.835Z,3.60
2023-05-22T03:26:12.659Z,8.17
2023-05-22T03:28:41.357Z,3.87
2023-05-22T03:31:09.495Z,3.40
2023-05-22T03:33:51.100Z,3.33
2023-05-22T03:36:20.051Z,3.47
2023-05-22T03:38:47.791Z,2.97
2023-05-22T03:41:15.831Z,3.00
2023-05-22T03:43:44.987Z,3.03
2023-05-22T03:46:13.871Z,2.83
2023-05-22T03:48:41.658Z,3.23
2023-05-22T03:51:09.463Z,3.10
2023-05-22T03:53:37.191Z,2.80
2023-05-22T03:56:05.191Z,2.70
2023-05-22T03:58:33.012Z,2.83
2023-05-22T04:01:01.373Z,3.13
2023-05-22T04:03:29.299Z,3.07
2023-05-22T04:05:57.214Z,3.23
2023-05-22T04:08:25.185Z,2.60
2023-05-22T04:10:54.565Z,3.10
2023-05-22T04:13:22.483Z,2.83
2023-05-22T04:15:50.428Z,3.60
2023-05-22T04:18:18.250Z,2.73
2023-05-22T04:20:47.184Z,2.90
2023-05-22T04:23:15.076Z,3.63
2023-05-22T04:25:42.848Z,3.03
2023-05-22T04:28:10.667Z,3.47
2023-05-22T04:30:40.261Z,3.63
2023-05-22T04:33:08.503Z,3.50
2023-05-22T04:35:36.342Z,3.40
2023-05-22T04:38:06.602Z,3.23
2023-05-22T04:40:34.462Z,2.90
2023-05-22T04:43:03.431Z,3.20
2023-05-22T04:45:32.980Z,3.37
2023-05-22T04:48:02.655Z,3.00
2023-05-22T04:50:34.390Z,3.53
2023-05-22T04:53:04.556Z,2.60
2023-05-22T04:55:35.567Z,3.57
2023-05-22T04:58:03.388Z,3.53
2023-05-22T05:00:31.207Z,3.07
2023-05-22T05:03:03.269Z,3.07
2023-05-22T05:05:31.321Z,3.30
2023-05-22T05:07:59.910Z,3.40
2023-05-22T05:10:27.955Z,3.47
2023-05-22T05:12:55.835Z,3.30
2023-05-22T05:15:23.990Z,3.03
2023-05-22T05:17:52.077Z,3.77
2023-05-22T05:20:20.476Z,3.90
2023-05-22T05:22:48.409Z,4.67
2023-05-22T05:25:16.967Z,5.00
2023-05-22T05:27:45.190Z,5.60
2023-05-22T05:30:13.465Z,4.63
2023-05-22T05:33:01.845Z,4.27
2023-05-22T05:35:44.633Z,4.10
2023-05-22T05:38:14.228Z,4.03
2023-05-22T05:40:44.994Z,3.97
2023-05-22T05:43:16.693Z,3.58
2023-05-22T05:45:45.813Z,4.00
2023-05-22T05:48:13.702Z,3.75
2023-05-22T05:50:44.948Z,3.65
2023-05-22T05:53:12.802Z,3.55
2023-05-22T05:55:44.951Z,3.75
2023-05-22T05:58:12.780Z,4.18
2023-05-22T06:00:46.681Z,3.40
2023-05-22T06:03:14.959Z,3.53
2023-05-22T06:06:03.311Z,3.25
2023-05-22T06:08:57.421Z,3.72
2023-05-22T06:11:31.460Z,3.80
2023-05-22T06:14:03.178Z,3.50
2023-05-22T06:16:31.279Z,3.17
2023-05-22T06:18:59.385Z,3.50
2023-05-22T06:21:27.762Z,3.60
2023-05-22T06:23:55.673Z,3.50
2023-05-22T06:26:25.863Z,3.95
2023-05-22T06:28:54.385Z,3.53
2023-05-22T06:31:24.475Z,3.30
2023-05-22T06:33:55.626Z,3.47
2023-05-22T06:36:25.329Z,3.60
2023-05-22T06:38:54.693Z,3.90
2023-05-22T06:41:48.612Z,3.00
2023-05-22T06:44:17.183Z,3.88
2023-05-22T06:46:45.064Z,3.20
2023-05-22T06:49:20.323Z,3.30
2023-05-22T06:51:52.389Z,3.53
2023-05-22T06:54:21.493Z,4.03
2023-05-22T06:56:52.535Z,3.60
2023-05-22T06:59:20.508Z,3.70
2023-05-22T07:02:20.664Z,3.25
2023-05-22T07:05:09.221Z,3.30
2023-05-22T07:07:48.564Z,3.70
2023-05-22T07:10:16.459Z,3.35
2023-05-22T07:12:44.322Z,3.53
2023-05-22T07:15:14.411Z,3.75
2023-05-22T07:17:49.768Z,3.13
2023-05-22T07:20:18.846Z,2.88
2023-05-22T07:22:58.880Z,2.92
2023-05-22T07:25:26.733Z,2.85
2023-05-22T07:27:55.918Z,3.00
2023-05-22T07:30:24.720Z,2.85
2023-05-22T07:32:52.719Z,2.60
2023-05-22T07:35:21.361Z,2.63
2023-05-22T07:37:49.232Z,3.45
2023-05-22T07:40:17.322Z,3.13
2023-05-22T07:42:45.171Z,3.25
2023-05-22T07:45:14.250Z,3.17
2023-05-22T07:47:42.425Z,3.15
2023-05-22T07:50:11.512Z,2.92
2023-05-22T07:52:42.764Z,2.85
2023-05-22T07:55:11.129Z,3.60
2023-05-22T07:57:43.702Z,2.97
2023-05-22T08:00:25.992Z,3.35
2023-05-22T08:02:53.942Z,3.17
2023-05-22T08:05:21.800Z,2.90
2023-05-22T08:07:49.609Z,3.25
2023-05-22T08:10:18.323Z,3.25
2023-05-22T08:12:46.158Z,3.00
2023-05-22T08:15:13.971Z,2.80
2023-05-22T08:17:41.786Z,3.03
2023-05-22T08:20:10.388Z,3.03
2023-05-22T08:22:39.152Z,2.50
2023-05-22T08:25:07.192Z,2.60
2023-05-22T08:27:34.996Z,3.00
2023-05-22T08:30:04.603Z,2.85
2023-05-22T08:32:32.545Z,2.47
2023-05-22T08:35:00.635Z,2.38
2023-05-22T08:37:28.386Z,2.85
2023-05-22T08:39:56.348Z,2.38
2023-05-22T08:42:24.474Z,2.50
2023-05-22T08:44:52.385Z,3.10
2023-05-22T08:47:20.593Z,2.95
2023-05-22T08:49:48.857Z,2.50
2023-05-22T08:52:21.816Z,2.72
2023-05-22T08:54:53.108Z,2.17
2023-05-22T08:57:21.049Z,2.72
2023-05-22T08:59:48.956Z,2.17
2023-05-22T09:02:17.278Z,2.83
2023-05-22T09:04:45.034Z,2.55
2023-05-22T09:07:14.572Z,3.00
2023-05-22T09:09:42.405Z,2.40
2023-05-22T09:12:10.520Z,2.60
2023-05-22T09:14:39.728Z,2.47
2023-05-22T09:17:12.014Z,2.85
2023-05-22T09:19:43.750Z,2.55
2023-05-22T09:22:11.607Z,2.72
2023-05-22T09:24:42.655Z,2.47
2023-05-22T09:27:11.201Z,2.25
2023-05-22T09:29:49.755Z,2.28
2023-05-22T09:32:18.392Z,2.08
2023-05-22T09:34:46.952Z,2.90
2023-05-22T09:37:15.329Z,2.15
2023-05-22T09:39:44.205Z,2.20
2023-05-22T09:42:12.947Z,2.58
2023-05-22T09:44:42.710Z,2.65
2023-05-22T09:47:11.212Z,2.33
2023-05-22T09:49:42.667Z,2.30
2023-05-22T09:52:12.631Z,2.20
2023-05-22T09:54:59.636Z,2.20
2023-05-22T09:57:27.536Z,2.55
2023-05-22T09:59:58.213Z,2.22
2023-05-22T10:02:26.807Z,2.38
2023-05-22T10:04:54.966Z,2.58
2023-05-22T10:07:25.399Z,2.55
2023-05-22T10:09:57.555Z,2.33
2023-05-22T10:12:25.565Z,2.50
2023-05-22T10:14:53.352Z,2.63
2023-05-22T10:17:21.363Z,2.38
2023-05-22T10:19:49.244Z,2.40
2023-05-22T10:22:20.991Z,2.20
2023-05-22T10:24:48.867Z,2.28
2023-05-22T10:27:16.675Z,2.83
2023-05-22T10:29:51.279Z,2.63
2023-05-22T10:32:28.649Z,2.03
2023-05-22T10:35:16.663Z,2.30
2023-05-22T10:37:55.045Z,2.83
2023-05-22T10:40:29.275Z,2.30
2023-05-22T10:43:01.139Z,2.53
2023-05-22T10:45:29.211Z,2.45
2023-05-22T10:48:07.386Z,2.30
2023-05-22T10:50:35.920Z,2.30
2023-05-22T10:53:22.466Z,2.50
2023-05-22T10:55:50.941Z,2.60
2023-05-22T10:58:22.913Z,2.30
2023-05-22T11:01:07.305Z,2.40
2023-05-22T11:03:54.233Z,2.20
2023-05-22T11:06:31.368Z,2.25
2023-05-22T11:08:59.353Z,2.28
2023-05-22T11:11:27.346Z,2.10
2023-05-22T11:14:04.552Z,2.22
2023-05-22T11:16:35.883Z,2.17
2023-05-22T11:19:22.056Z,2.15
2023-05-22T11:21:51.162Z,2.35
2023-05-22T11:24:19.126Z,2.53
2023-05-22T11:27:00.849Z,2.33
2023-05-22T11:29:29.303Z,2.50
2023-05-22T11:32:00.747Z,2.38
2023-05-22T11:34:28.695Z,2.20
2023-05-22T11:36:59.886Z,2.28
2023-05-22T11:39:27.852Z,2.47
2023-05-22T11:41:55.751Z,2.60
2023-05-22T11:44:23.563Z,2.05
2023-05-22T11:46:51.692Z,2.10
2023-05-22T11:49:23.922Z,2.67
2023-05-22T11:51:51.983Z,2.35
2023-05-22T11:54:20.247Z,2.00
2023-05-22T11:56:48.089Z,2.42
2023-05-22T11:59:19.401Z,2.13
2023-05-22T12:01:52.240Z,2.40
2023-05-22T12:04:20.105Z,2.30
2023-05-22T12:06:48.049Z,2.67
2023-05-22T12:09:15.838Z,2.40
2023-05-22T12:11:49.883Z,2.10
2023-05-22T12:14:17.745Z,2.20
2023-05-22T12:16:45.603Z,2.60
2023-05-22T12:19:13.999Z,2.03
2023-05-22T12:21:42.162Z,2.42
2023-05-22T12:24:10.120Z,2.13
2023-05-22T12:26:38.052Z,2.42
2023-05-22T12:29:06.080Z,2.22
2023-05-22T12:31:36.304Z,1.92
2023-05-22T12:34:05.521Z,2.50
2023-05-22T12:36:35.020Z,2.15
2023-05-22T12:39:02.848Z,2.55
2023-05-22T12:41:30.624Z,2.35
2023-05-22T12:43:58.408Z,2.15
2023-05-22T12:46:26.357Z,2.10
2023-05-22T12:48:54.354Z,2.45
2023-05-22T12:51:24.110Z,3.65
2023-05-22T12:53:51.880Z,2.50
2023-05-22T12:56:19.714Z,2.60
2023-05-22T12:58:47.472Z,2.15
2023-05-22T13:01:15.503Z,2.33
2023-05-22T13:03:43.390Z,2.38
2023-05-22T13:06:12.324Z,2.05
2023-05-22T13:08:40.134Z,2.38
2023-05-22T13:11:07.972Z,3.88
2023-05-22T13:13:35.744Z,3.47
2023-05-22T13:16:03.662Z,7.65
2023-05-22T13:18:31.580Z,3.33
2023-05-22T13:21:00.440Z,3.78
2023-05-22T13:23:28.322Z,2.90
2023-05-22T13:25:56.223Z,4.30
2023-05-22T13:28:24.066Z,2.33
2023-05-22T13:30:51.886Z,2.65
2023-05-22T13:33:19.657Z,2.00
2023-05-22T13:35:47.465Z,2.45
2023-05-22T13:38:16.439Z,2.45
2023-05-22T13:40:46.191Z,2.85
2023-05-22T13:43:15.455Z,2.47
2023-05-22T13:45:43.313Z,2.15
2023-05-22T13:48:11.428Z,2.47
2023-05-22T13:50:39.364Z,2.38
2023-05-22T13:53:07.138Z,2.25
2023-05-22T13:55:34.939Z,2.38
2023-05-22T13:58:02.677Z,2.40
2023-05-22T14:00:30.657Z,3.30
2023-05-22T14:02:58.589Z,2.78
2023-05-22T14:05:26.422Z,2.90
2023-05-22T14:07:55.917Z,2.67
2023-05-22T14:10:23.672Z,2.65
2023-05-22T14:12:51.552Z,2.70
2023-05-22T14:15:19.344Z,2.38
2023-05-22T14:17:47.211Z,2.47
2023-05-22T14:20:15.128Z,2.25
2023-05-22T14:22:56.531Z,8.38
2023-05-22T14:25:26.373Z,3.10
2023-05-22T14:27:54.157Z,2.78
2023-05-22T14:30:21.905Z,3.17
2023-05-22T14:32:49.945Z,3.42
2023-05-22T14:35:17.909Z,2.63
2023-05-22T14:37:45.785Z,3.05
2023-05-22T14:40:13.678Z,3.03
2023-05-22T14:42:41.503Z,2.78
2023-05-22T14:45:09.523Z,2.22
2023-05-22T14:47:37.426Z,2.35
2023-05-22T14:50:18.217Z,2.63
2023-05-22T14:52:48.776Z,2.33
2023-05-22T14:55:17.104Z,2.40
2023-05-22T14:57:45.103Z,2.60
2023-05-22T15:00:14.163Z,2.67
2023-05-22T15:02:42.069Z,2.50
2023-05-22T15:05:10.074Z,2.65
2023-05-22T15:10:09.712Z,2.78
2023-05-22T15:12:37.477Z,3.03
2023-05-22T15:15:05.601Z,2.80
2023-05-22T15:17:33.485Z,2.47
2023-05-22T15:20:01.395Z,2.40
2023-05-22T15:22:29.245Z,2.55
2023-05-22T15:25:11.638Z,2.67
2023-05-22T15:27:39.711Z,2.70
2023-05-22T15:30:09.777Z,2.70
2023-05-22T15:32:37.890Z,2.30
2023-05-22T15:35:07.013Z,2.60
2023-05-22T15:37:36.502Z,2.53
2023-05-22T15:40:05.871Z,2.75
2023-05-22T15:42:33.640Z,2.47
2023-05-22T15:45:01.453Z,2.47
2023-05-22T15:47:29.572Z,2.80
2023-05-22T15:49:57.441Z,2.47
2023-05-22T15:52:25.315Z,2.72
2023-05-22T15:54:55.002Z,2.35
2023-05-22T15:57:24.123Z,3.15
2023-05-22T15:59:52.005Z,2.88
2023-05-22T16:02:19.801Z,2.70
2023-05-22T16:04:48.804Z,3.30
2023-05-22T16:07:18.873Z,2.85
2023-05-22T16:09:46.723Z,2.80
2023-05-22T16:12:14.496Z,2.47
2023-05-22T16:14:42.318Z,2.40
2023-05-22T16:17:10.119Z,2.97
2023-05-22T16:19:38.021Z,2.47
2023-05-22T16:22:05.806Z,3.00
2023-05-22T16:24:33.655Z,2.65
2023-05-22T16:27:01.427Z,2.45
2023-05-22T16:29:29.250Z,2.90
2023-05-22T16:31:57.075Z,2.90
2023-05-22T16:34:25.066Z,3.15
2023-05-22T16:36:52.781Z,2.70
2023-05-22T16:39:20.644Z,2.60
2023-05-22T16:41:48.475Z,2.55
2023-05-22T16:44:16.318Z,2.70
2023-05-22T16:46:44.169Z,2.80
2023-05-22T16:49:12.197Z,3.10
2023-05-22T16:51:39.937Z,2.75
2023-05-22T16:54:07.735Z,2.83
2023-05-22T16:56:35.611Z,3.30
2023-05-22T16:59:05.152Z,3.28
2023-05-22T17:01:33.059Z,3.60
2023-05-22T17:04:00.981Z,3.95
2023-05-22T17:06:29.438Z,4.35
2023-05-22T17:08:57.419Z,6.50
2023-05-22T17:11:26.171Z,19.92
2023-05-22T17:13:54.043Z,15.75
2023-05-22T17:16:21.915Z,14.68
2023-05-22T17:18:49.856Z,17.75
2023-05-22T17:21:17.680Z,9.23
2023-05-22T17:23:45.502Z,7.80
2023-05-22T17:26:14.273Z,5.53
2023-05-22T17:28:42.122Z,3.78
2023-05-22T17:31:09.880Z,3.63
2023-05-22T17:33:37.698Z,3.22
2023-05-22T17:36:05.721Z,3.25
2023-05-22T17:38:33.526Z,3.35
2023-05-22T17:41:01.335Z,3.85
2023-05-22T17:43:29.416Z,4.07
2023-05-22T17:45:57.318Z,3.88
2023-05-22T17:48:27.303Z,3.70
2023-05-22T17:50:55.409Z,3.58
2023-05-22T17:53:23.219Z,3.85
2023-05-22T17:55:52.668Z,3.07
2023-05-22T17:58:21.045Z,2.72
2023-05-22T18:00:49.148Z,2.80
2023-05-22T18:03:20.675Z,3.17
2023-05-22T18:05:49.245Z,2.00
2023-05-22T18:08:17.840Z,2.17
2023-05-22T18:10:45.655Z,2.10
2023-05-22T18:13:13.461Z,2.50
2023-05-22T18:15:41.326Z,2.22
2023-05-22T18:18:11.359Z,2.97
2023-05-22T18:20:40.733Z,4.83
2023-05-22T18:23:08.621Z,3.60
2023-05-22T18:25:36.442Z,4.17
2023-05-22T18:28:04.176Z,2.80
2023-05-22T18:30:32.347Z,6.93
2023-05-22T18:33:00.217Z,2.50
2023-05-22T18:35:28.024Z,1.80
2023-05-22T18:37:57.090Z,2.70
2023-05-22T18:40:24.971Z,12.60
2023-05-22T18:42:52.699Z,4.07
2023-05-22T18:45:20.483Z,2.30
2023-05-22T18:47:48.296Z,2.30
2023-05-22T18:50:16.156Z,1.83
2023-05-22T18:52:43.884Z,2.13
2023-05-22T18:55:12.384Z,2.80
2023-05-22T18:57:40.145Z,3.03
2023-05-22T19:00:10.201Z,7.05
2023-05-22T19:02:38.034Z,5.63
2023-05-22T19:05:07.124Z,6.05
2023-05-22T19:07:35.108Z,5.25
2023-05-22T19:10:04.912Z,7.47
2023-05-22T19:12:34.223Z,3.20
2023-05-22T19:15:02.032Z,2.60
2023-05-22T19:17:29.853Z,5.03
2023-05-22T19:19:57.640Z,4.93
2023-05-22T19:22:25.389Z,4.30
2023-05-22T19:24:53.154Z,3.22
2023-05-22T19:27:20.890Z,2.78
2023-05-22T19:29:48.771Z,4.27
2023-05-22T19:32:16.543Z,2.60
2023-05-22T19:34:44.325Z,3.10
2023-05-22T19:37:12.023Z,5.05
2023-05-22T19:39:39.851Z,4.97
2023-05-22T19:42:08.404Z,5.00
2023-05-22T19:44:36.191Z,4.10
2023-05-22T19:47:03.992Z,3.83
2023-05-22T19:49:36.647Z,3.67
2023-05-22T19:52:05.822Z,3.60
2023-05-22T19:54:34.180Z,2.93
2023-05-22T19:57:02.988Z,5.75
2023-05-22T19:59:30.794Z,3.87
2023-05-22T20:01:58.561Z,3.10
2023-05-22T20:04:26.359Z,5.00
2023-05-22T20:06:54.282Z,4.10
2023-05-22T20:09:21.975Z,3.63
2023-05-22T20:11:49.757Z,3.50
2023-05-22T20:14:17.486Z,3.50
2023-05-22T20:16:45.474Z,3.67
2023-05-22T20:19:14.802Z,10.57
2023-05-22T20:21:42.668Z,6.00
2023-05-22T20:24:18.953Z,4.20
2023-05-22T20:26:47.127Z,3.00
2023-05-22T20:29:14.952Z,6.77
2023-05-22T20:31:42.769Z,4.07
2023-05-22T20:34:10.557Z,2.93
2023-05-22T20:36:42.614Z,2.73
2023-05-22T20:39:11.937Z,2.13
2023-05-22T20:41:39.716Z,2.93
2023-05-22T20:44:07.805Z,2.97
2023-05-22T20:46:35.653Z,2.40
2023-05-22T20:49:04.853Z,8.90
2023-05-22T20:51:32.876Z,4.77
2023-05-22T20:54:00.845Z,3.30
2023-05-22T20:56:30.103Z,3.03
2023-05-22T20:58:57.968Z,2.97
2023-05-22T21:01:25.830Z,2.70
2023-05-22T21:03:54.564Z,2.97
2023-05-22T21:06:22.653Z,3.50
2023-05-22T21:08:52.502Z,6.40
2023-05-22T21:11:21.756Z,4.00
2023-05-22T21:13:49.496Z,3.73
2023-05-22T21:16:17.275Z,2.97
2023-05-22T21:18:45.091Z,3.70
2023-05-22T21:21:14.459Z,3.03
2023-05-22T21:23:43.262Z,2.23
2023-05-22T21:26:11.111Z,2.80
2023-05-22T21:28:39.013Z,2.60
2023-05-22T21:31:07.038Z,3.67
2023-05-22T21:33:34.998Z,4.07
2023-05-22T21:36:02.794Z,4.37
2023-05-22T21:38:30.644Z,4.53
2023-05-22T21:40:59.023Z,6.03
2023-05-22T21:43:26.709Z,5.43
2023-05-22T21:45:54.489Z,3.93
2023-05-22T21:48:22.185Z,2.93
2023-05-22T21:50:50.321Z,3.13
2023-05-22T21:53:18.069Z,2.67
2023-05-22T21:55:45.869Z,3.73
2023-05-22T21:58:13.701Z,4.50
2023-05-22T22:00:41.832Z,4.60
2023-05-22T22:03:09.804Z,4.00
2023-05-22T22:05:37.639Z,4.00
2023-05-22T22:08:05.853Z,3.37
2023-05-22T22:10:33.831Z,2.30
2023-05-22T22:13:02.339Z,2.40
2023-05-22T22:15:30.027Z,2.10
2023-05-22T22:17:59.562Z,1.80
2023-05-22T22:20:42.514Z,1.60
2023-05-22T22:23:11.729Z,2.20
2023-05-22T22:25:39.629Z,1.80
2023-05-22T22:28:07.699Z,1.90
2023-05-22T22:30:35.713Z,1.60
2023-05-22T22:33:03.558Z,2.30
2023-05-22T22:35:31.602Z,2.50
2023-05-22T22:37:59.471Z,2.80
2023-05-22T22:40:27.318Z,3.27
2023-05-22T22:42:55.060Z,3.00
2023-05-22T22:45:22.794Z,3.67
2023-05-22T22:47:50.615Z,3.00
2023-05-22T22:50:18.481Z,2.93
2023-05-22T22:52:46.305Z,2.63
2023-05-22T22:55:14.178Z,3.17
2023-05-22T22:57:44.603Z,2.97
2023-05-22T23:00:13.423Z,2.43
2023-05-22T23:02:41.284Z,2.40
2023-05-22T23:05:09.391Z,2.10
2023-05-22T23:07:37.380Z,2.30
2023-05-22T23:10:05.512Z,2.40
2023-05-22T23:12:36.040Z,2.00
2023-05-22T23:15:04.446Z,2.00
2023-05-22T23:17:32.220Z,2.13
2023-05-22T23:19:59.960Z,2.17
2023-05-22T23:22:27.749Z,2.03
2023-05-22T23:24:55.462Z,2.33
2023-05-22T23:27:23.245Z,2.23
2023-05-22T23:29:51.055Z,1.93
2023-05-22T23:32:18.873Z,1.97
2023-05-22T23:34:46.632Z,2.30
2023-05-22T23:37:14.419Z,1.97
2023-05-22T23:39:42.127Z,1.90
2023-05-22T23:42:10.989Z,2.20
2023-05-22T23:44:38.781Z,2.40
2023-05-22T23:47:06.975Z,1.90
2023-05-22T23:49:34.867Z,2.30
2023-05-22T23:52:02.666Z,1.97
2023-05-22T23:54:30.399Z,2.23
2023-05-22T23:56:58.141Z,2.20
2023-05-22T23:59:25.931Z,2.23
